createdAt,value
2023-01-05T00:01:53.358Z,99821.09
2023-01-05T00:04:43.520Z,99816.22
2023-01-05T00:07:32.228Z,99819.47
2023-01-05T00:10:34.716Z,99806.31
2023-01-05T00:13:41.292Z,99817.91
2023-01-05T00:16:47.497Z,99812.03
2023-01-05T00:19:54.657Z,99813.06
2023-01-05T00:22:46.772Z,99804.00
2023-01-05T00:25:39.050Z,99806.53
2023-01-05T00:28:27.733Z,99810.69
2023-01-05T00:31:16.392Z,99808.22
2023-01-05T00:34:05.039Z,99811.56
2023-01-05T00:36:53.695Z,99812.88
2023-01-05T00:39:43.768Z,99811.91
2023-01-05T00:42:32.355Z,99823.28
2023-01-05T00:45:21.953Z,99827.16
2023-01-05T00:48:10.641Z,99833.09
2023-01-05T00:50:59.224Z,99827.31
2023-01-05T00:53:49.696Z,99818.34
2023-01-05T00:56:40.902Z,99826.16
2023-01-05T00:59:29.526Z,99810.75
2023-01-05T01:02:18.204Z,99829.16
2023-01-05T01:05:07.823Z,99825.91
2023-01-05T01:07:56.488Z,99829.00
2023-01-05T01:10:45.062Z,99833.31
2023-01-05T01:13:35.118Z,99821.84
2023-01-05T01:16:23.849Z,99821.00
2023-01-05T01:19:15.603Z,99832.94
2023-01-05T01:22:04.377Z,99825.13
2023-01-05T01:24:53.850Z,99820.41
2023-01-05T01:27:42.523Z,99824.69
2023-01-05T01:30:32.637Z,99815.03
2023-01-05T01:33:21.353Z,99821.84
2023-01-05T01:36:11.707Z,99817.72
2023-01-05T01:39:00.331Z,99811.34
2023-01-05T01:41:49.263Z,99817.09
2023-01-05T01:44:56.003Z,99816.88
2023-01-05T01:47:51.142Z,99828.63
2023-01-05T01:50:43.302Z,99844.28
2023-01-05T01:53:34.003Z,99826.00
2023-01-05T01:56:24.555Z,99832.53
2023-01-05T01:59:13.417Z,99826.00
2023-01-05T02:02:03.332Z,99824.38
2023-01-05T02:04:53.423Z,99835.47
2023-01-05T02:07:46.184Z,99824.06
2023-01-05T02:10:50.802Z,99829.22
2023-01-05T02:13:50.449Z,99829.88
2023-01-05T02:16:48.939Z,99828.81
2023-01-05T02:20:03.985Z,99819.78
2023-01-05T02:23:11.992Z,99815.03
2023-01-05T02:26:35.025Z,99807.44
2023-01-05T02:29:55.309Z,99799.00
2023-01-05T02:32:49.390Z,99799.97
2023-01-05T02:35:43.604Z,99823.22
2023-01-05T02:38:36.718Z,99822.63
2023-01-05T02:41:27.870Z,99829.88
2023-01-05T02:44:17.972Z,99822.72
2023-01-05T02:47:08.498Z,99820.06
2023-01-05T02:50:02.431Z,99824.31
2023-01-05T02:52:57.799Z,99810.72
2023-01-05T02:55:53.684Z,99814.06
2023-01-05T02:58:45.630Z,99795.09
2023-01-05T03:01:36.043Z,99796.22
2023-01-05T03:04:27.616Z,99784.47
2023-01-05T03:07:20.634Z,99800.13
2023-01-05T03:10:23.754Z,99789.03
2023-01-05T03:13:30.255Z,99793.53
2023-01-05T03:16:23.363Z,99785.31
2023-01-05T03:19:31.787Z,99794.78
2023-01-05T03:22:43.196Z,99793.16
2023-01-05T03:25:49.645Z,99792.28
2023-01-05T03:28:59.851Z,99797.25
2023-01-05T03:32:08.670Z,99798.06
2023-01-05T03:35:18.050Z,99790.66
2023-01-05T03:38:18.122Z,99801.00
2023-01-05T03:41:10.209Z,99795.66
2023-01-05T03:43:58.935Z,99792.41
2023-01-05T03:46:47.734Z,99804.28
2023-01-05T03:49:36.600Z,99797.91
2023-01-05T03:52:25.258Z,99790.53
2023-01-05T03:55:15.244Z,99812.94
2023-01-05T03:58:03.960Z,99799.78
2023-01-05T04:00:52.584Z,99803.72
2023-01-05T04:03:41.869Z,99814.13
2023-01-05T04:06:30.592Z,99826.44
2023-01-05T04:09:19.225Z,99821.97
2023-01-05T04:12:09.332Z,99824.47
2023-01-05T04:14:57.968Z,99826.09
2023-01-05T04:17:46.574Z,99828.94
2023-01-05T04:20:35.146Z,99845.75
2023-01-05T04:23:23.765Z,99851.09
2023-01-05T04:26:12.354Z,99856.84
2023-01-05T04:29:02.338Z,99853.78
2023-01-05T04:31:50.861Z,99858.69
2023-01-05T04:34:39.552Z,99853.13
2023-01-05T04:37:28.196Z,99849.03
2023-01-05T04:40:16.974Z,99851.97
2023-01-05T04:43:05.848Z,99857.69
2023-01-05T04:45:55.843Z,99851.56
2023-01-05T04:48:44.437Z,99849.88
2023-01-05T04:51:33.111Z,99855.22
2023-01-05T04:54:21.772Z,99864.13
2023-01-05T04:57:10.397Z,99878.09
2023-01-05T04:59:59.032Z,99875.03
2023-01-05T05:02:50.026Z,99876.63
2023-01-05T05:05:38.789Z,99883.63
2023-01-05T05:08:27.420Z,99879.47
2023-01-05T05:11:16.041Z,99878.19
2023-01-05T05:14:04.634Z,99876.09
2023-01-05T05:16:53.283Z,99888.00
2023-01-05T05:19:43.413Z,99880.31
2023-01-05T05:22:32.107Z,99879.38
2023-01-05T05:25:20.730Z,99877.41
2023-01-05T05:28:09.317Z,99888.53
2023-01-05T05:30:58.664Z,99894.22
2023-01-05T05:33:47.308Z,99889.63
2023-01-05T05:36:38.133Z,99891.25
2023-01-05T05:39:26.746Z,99894.81
2023-01-05T05:42:15.361Z,99889.47
2023-01-05T05:45:04.019Z,99909.03
2023-01-05T05:47:52.633Z,99915.72
2023-01-05T05:50:41.321Z,99920.25
2023-01-05T05:53:31.372Z,99923.75
2023-01-05T05:56:20.220Z,99906.47
2023-01-05T05:59:08.886Z,99912.84
2023-01-05T06:01:57.615Z,99902.16
2023-01-05T06:04:46.353Z,99903.41
2023-01-05T06:07:35.006Z,99904.81
2023-01-05T06:10:24.982Z,99910.38
2023-01-05T06:13:13.917Z,99907.34
2023-01-05T06:16:02.623Z,99899.69
2023-01-05T06:18:51.276Z,99909.97
2023-01-05T06:21:39.880Z,99905.06
2023-01-05T06:24:28.468Z,99902.19
2023-01-05T06:27:18.568Z,99925.84
2023-01-05T06:30:08.343Z,99927.25
2023-01-05T06:32:57.097Z,99928.94
2023-01-05T06:35:45.768Z,99926.47
2023-01-05T06:38:34.352Z,99928.13
2023-01-05T06:41:22.950Z,99937.16
2023-01-05T06:44:13.071Z,99937.59
2023-01-05T06:47:01.918Z,99937.59
2023-01-05T06:49:50.542Z,99943.97
2023-01-05T06:52:40.259Z,99951.78
2023-01-05T06:55:30.119Z,99949.91
2023-01-05T06:58:18.702Z,99948.88
2023-01-05T07:01:08.903Z,99951.38
2023-01-05T07:03:57.660Z,99955.28
2023-01-05T07:06:46.324Z,99960.84
2023-01-05T07:09:34.883Z,99957.69
2023-01-05T07:12:23.534Z,99955.81
2023-01-05T07:15:12.538Z,99963.69
2023-01-05T07:18:02.507Z,99968.22
2023-01-05T07:20:51.111Z,99960.19
2023-01-05T07:23:39.787Z,99981.91
2023-01-05T07:26:28.422Z,99980.72
2023-01-05T07:29:17.164Z,99990.97
2023-01-05T07:32:06.613Z,99995.13
2023-01-05T07:34:56.654Z,99985.25
2023-01-05T07:37:45.407Z,99989.41
2023-01-05T07:40:33.965Z,100008.13
2023-01-05T07:43:22.672Z,100002.16
2023-01-05T07:46:11.731Z,99991.88
2023-01-05T07:49:00.420Z,99997.84
2023-01-05T07:51:50.432Z,100004.03
2023-01-05T07:54:39.164Z,100017.41
2023-01-05T07:57:27.940Z,100010.22
2023-01-05T08:00:17.216Z,100013.47
2023-01-05T08:03:05.872Z,100014.94
2023-01-05T08:05:54.478Z,100020.28
2023-01-05T08:08:44.521Z,100021.31
2023-01-05T08:11:33.187Z,100020.69
2023-01-05T08:14:21.943Z,100028.72
2023-01-05T08:17:10.611Z,100039.19
2023-01-05T08:19:59.249Z,100031.41
2023-01-05T08:22:52.082Z,100035.06
2023-01-05T08:25:42.058Z,100033.03
2023-01-05T08:28:35.219Z,100033.03
2023-01-05T08:31:27.085Z,100038.78
2023-01-05T08:34:15.809Z,100047.03
2023-01-05T08:37:04.519Z,100061.41
2023-01-05T08:39:53.220Z,100065.09
2023-01-05T08:42:43.280Z,100068.59
2023-01-05T08:45:32.005Z,100072.47
2023-01-05T08:48:20.672Z,100088.50
2023-01-05T08:51:09.291Z,100079.28
2023-01-05T08:53:59.046Z,100078.25
2023-01-05T08:56:50.519Z,100082.75
2023-01-05T08:59:40.736Z,100078.66
2023-01-05T09:02:29.486Z,100086.66
2023-01-05T09:05:18.575Z,100092.00
2023-01-05T09:08:07.209Z,100092.19
2023-01-05T09:10:55.979Z,100096.13
2023-01-05T09:13:47.880Z,100089.75
2023-01-05T09:19:46.587Z,100100.16
2023-01-05T09:22:36.287Z,100110.41
2023-01-05T09:25:25.126Z,100111.63
2023-01-05T09:28:13.800Z,100128.81
2023-01-05T09:31:08.196Z,100127.00
2023-01-05T09:33:59.588Z,100107.13
2023-01-05T09:36:48.452Z,100122.25
2023-01-05T09:39:37.118Z,100111.19
2023-01-05T09:42:27.498Z,100104.19
2023-01-05T09:45:23.298Z,100117.09
2023-01-05T09:48:13.669Z,100116.84
2023-01-05T09:51:03.697Z,100122.53
2023-01-05T09:53:52.495Z,100113.06
2023-01-05T09:57:08.960Z,100126.59
2023-01-05T09:59:54.405Z,100114.72
2023-01-05T10:02:48.072Z,100121.56
2023-01-05T10:05:40.234Z,100131.94
2023-01-05T10:08:35.843Z,100131.44
2023-01-05T10:11:47.069Z,100139.75
2023-01-05T10:14:40.040Z,100145.28
2023-01-05T10:17:41.339Z,100146.06
2023-01-05T10:20:37.627Z,100142.72
2023-01-05T10:23:50.922Z,100135.84
2023-01-05T10:27:14.354Z,100138.34
2023-01-05T10:29:59.618Z,100144.13
2023-01-05T10:33:14.829Z,100144.31
2023-01-05T10:36:16.579Z,100144.47
2023-01-05T10:39:14.009Z,100157.88
2023-01-05T10:42:08.096Z,100163.56
2023-01-05T10:44:59.072Z,100153.59
2023-01-05T10:47:48.576Z,100148.13
2023-01-05T10:50:39.143Z,100148.88
2023-01-05T10:53:29.554Z,100144.09
2023-01-05T10:56:25.698Z,100155.34
2023-01-05T10:59:15.823Z,100148.56
2023-01-05T11:02:04.740Z,100143.09
2023-01-05T11:04:54.096Z,100162.19
2023-01-05T11:07:48.742Z,100165.31
2023-01-05T11:10:39.600Z,100152.44
2023-01-05T11:13:34.843Z,100152.09
2023-01-05T11:16:26.413Z,100166.81
2023-01-05T11:19:18.171Z,100169.22
2023-01-05T11:22:06.813Z,100178.22
2023-01-05T11:24:55.390Z,100184.94
2023-01-05T11:27:44.035Z,100159.41
2023-01-05T11:30:34.676Z,100167.03
2023-01-05T11:33:25.989Z,100167.81
2023-01-05T11:36:16.318Z,100181.44
2023-01-05T11:39:05.133Z,100178.78
2023-01-05T11:41:53.859Z,100186.38
2023-01-05T11:44:47.783Z,100178.53
2023-01-05T11:47:44.383Z,100194.69
2023-01-05T11:50:35.638Z,100195.41
2023-01-05T11:53:37.710Z,100197.63
2023-01-05T11:56:26.796Z,100196.38
2023-01-05T11:59:30.770Z,100193.25
2023-01-05T12:02:34.898Z,100206.84
2023-01-05T12:05:30.542Z,100194.66
2023-01-05T12:08:23.092Z,100203.97
2023-01-05T12:11:14.520Z,100205.00
2023-01-05T12:14:21.374Z,100208.28
2023-01-05T12:17:15.148Z,100214.41
2023-01-05T12:20:14.072Z,100197.56
2023-01-05T12:23:19.058Z,100203.34
2023-01-05T12:26:15.774Z,100204.53
2023-01-05T12:36:18.678Z,100216.34
2023-01-05T12:39:31.582Z,100224.22
2023-01-05T12:42:34.331Z,100224.13
2023-01-05T12:45:58.429Z,100249.28
2023-01-05T12:48:49.997Z,100232.59
2023-01-05T12:51:42.781Z,100241.25
2023-01-05T12:54:39.874Z,100238.16
2023-01-05T12:57:32.704Z,100252.16
2023-01-05T13:00:22.238Z,100249.13
2023-01-05T13:03:17.376Z,100246.25
2023-01-05T13:06:08.705Z,100245.19
2023-01-05T13:08:59.990Z,100255.97
2023-01-05T13:11:53.188Z,100246.06
2023-01-05T13:14:52.545Z,100248.53
2023-01-05T13:17:44.362Z,100268.31
2023-01-05T13:20:40.230Z,100252.03
2023-01-05T13:23:30.905Z,100261.72
2023-01-05T13:26:20.526Z,100266.22
2023-01-05T13:29:23.021Z,100258.94
2023-01-05T13:32:23.522Z,100270.03
2023-01-05T13:35:23.284Z,100291.13
2023-01-05T13:39:00.094Z,100270.91
2023-01-05T13:42:08.946Z,100284.91
2023-01-05T13:45:25.308Z,100289.63
2023-01-05T13:48:44.257Z,100295.22
2023-01-05T13:51:47.031Z,100306.41
2023-01-05T13:54:59.920Z,100323.28
2023-01-05T13:57:49.973Z,100333.63
2023-01-05T14:00:43.654Z,100336.50
2023-01-05T14:03:34.615Z,100334.41
2023-01-05T14:06:26.713Z,100339.31
2023-01-05T14:09:18.330Z,100342.16
2023-01-05T14:12:25.806Z,100366.28
2023-01-05T14:15:37.887Z,100375.97
2023-01-05T14:18:52.303Z,100374.72
2023-01-05T14:22:02.455Z,100398.69
2023-01-05T14:24:52.375Z,100392.50
2023-01-05T14:28:24.179Z,100399.59
2023-01-05T14:31:38.402Z,100414.09
2023-01-05T14:34:29.631Z,100418.72
2023-01-05T14:37:24.233Z,100427.41
2023-01-05T14:40:22.834Z,100432.28
2023-01-05T14:43:24.576Z,100433.09
2023-01-05T14:46:15.162Z,100438.66
2023-01-05T14:49:06.920Z,100439.81
2023-01-05T14:51:58.438Z,100451.59
2023-01-05T14:55:27.124Z,100450.78
2023-01-05T14:58:50.779Z,100474.22
2023-01-05T15:04:33.182Z,100469.06
2023-01-05T15:07:33.594Z,100476.72
2023-01-05T15:10:49.816Z,100478.16
2023-01-05T15:14:15.987Z,100474.66
2023-01-05T15:17:45.258Z,100475.19
2023-01-05T15:21:19.482Z,100479.63
2023-01-05T15:24:49.974Z,100483.31
2023-01-05T15:27:51.218Z,100481.06
2023-01-05T15:31:04.992Z,100490.66
2023-01-05T15:33:57.705Z,100492.47
2023-01-05T15:36:51.578Z,100493.25
2023-01-05T15:39:48.684Z,100487.47
2023-01-05T15:42:40.489Z,100498.19
2023-01-05T15:45:30.805Z,100508.47
2023-01-05T15:48:27.174Z,100514.25
2023-01-05T15:51:24.128Z,100511.31
2023-01-05T15:54:24.126Z,100513.41
2023-01-05T15:57:22.134Z,100525.56
2023-01-05T16:00:18.840Z,100531.13
2023-01-05T16:03:22.044Z,100534.03
2023-01-05T16:06:12.893Z,100540.22
2023-01-05T16:09:09.796Z,100529.28
2023-01-05T16:12:01.093Z,100540.66
2023-01-05T16:14:57.730Z,100542.16
2023-01-05T16:17:46.500Z,100546.06
2023-01-05T16:20:36.528Z,100553.44
2023-01-05T16:23:29.999Z,100548.09
2023-01-05T16:26:19.420Z,100566.19
2023-01-05T16:29:21.891Z,100569.28
2023-01-05T16:32:28.248Z,100567.81
2023-01-05T16:35:33.119Z,100574.63
2023-01-05T16:38:26.824Z,100574.63
2023-01-05T16:41:21.189Z,100581.41
2023-01-05T16:44:14.133Z,100597.06
2023-01-05T16:47:07.536Z,100587.53
2023-01-05T16:49:58.522Z,100595.72
2023-01-05T16:52:53.457Z,100600.78
2023-01-05T16:55:42.555Z,100598.25
2023-01-05T16:58:39.333Z,100612.72
2023-01-05T17:01:35.753Z,100605.31
2023-01-05T17:04:24.449Z,100612.91
2023-01-05T17:07:14.437Z,100605.69
2023-01-05T17:10:03.008Z,100620.84
2023-01-05T17:12:57.792Z,100625.28
2023-01-05T17:15:47.854Z,100636.69
2023-01-05T17:18:36.505Z,100627.25
2023-01-05T17:21:27.456Z,100621.50
2023-01-05T17:24:17.525Z,100628.28
2023-01-05T17:27:06.185Z,100630.16
2023-01-05T17:32:49.142Z,100635.91
2023-01-05T17:35:37.803Z,100646.22
2023-01-05T17:38:26.416Z,100641.28
2023-01-05T17:41:17.142Z,100643.31
2023-01-05T17:44:06.188Z,100648.91
2023-01-05T17:46:54.852Z,100656.94
2023-01-05T17:49:43.833Z,100658.16
2023-01-05T17:52:32.497Z,100666.81
2023-01-05T17:55:21.120Z,100658.16
2023-01-05T17:58:13.407Z,100667.22
2023-01-05T18:01:02.155Z,100665.56
2023-01-05T18:03:50.952Z,100666.81
2023-01-05T18:06:39.596Z,100664.75
2023-01-05T18:09:28.305Z,100673.03
2023-01-05T18:12:16.881Z,100672.16
2023-01-05T18:15:08.306Z,100676.91
2023-01-05T18:17:58.272Z,100682.09
2023-01-05T18:20:46.881Z,100685.19
2023-01-05T18:23:35.873Z,100675.28
2023-01-05T18:26:24.510Z,100687.13
2023-01-05T18:29:13.213Z,100695.19
2023-01-05T18:32:03.166Z,100701.78
2023-01-05T18:34:52.361Z,100700.94
2023-01-05T18:37:41.643Z,100704.72
2023-01-05T18:40:30.275Z,100712.56
2023-01-05T18:43:19.124Z,100715.88
2023-01-05T18:46:08.212Z,100720.03
2023-01-05T18:48:58.152Z,100733.59
2023-01-05T18:51:46.788Z,100737.31
2023-01-05T18:54:35.443Z,100731.97
2023-01-05T18:57:24.111Z,100739.75
2023-01-05T19:00:14.155Z,100743.09
2023-01-05T19:03:05.243Z,100745.94
2023-01-05T19:05:55.186Z,100741.59
2023-01-05T19:08:44.140Z,100742.66
2023-01-05T19:11:33.050Z,100737.69
2023-01-05T19:14:21.700Z,100743.28
2023-01-05T19:17:10.318Z,100738.53
2023-01-05T19:19:58.990Z,100735.00
2023-01-05T19:22:49.128Z,100736.44
2023-01-05T19:25:37.780Z,100737.63
2023-01-05T19:28:26.406Z,100745.03
2023-01-05T19:31:16.348Z,100743.03
2023-01-05T19:34:05.715Z,100748.31
2023-01-05T19:36:54.322Z,100744.84
2023-01-05T19:39:44.317Z,100737.63
2023-01-05T19:42:33.160Z,100747.56
2023-01-05T19:45:21.848Z,100749.63
2023-01-05T19:48:10.466Z,100752.50
2023-01-05T19:50:59.691Z,100752.66
2023-01-05T19:53:55.414Z,100753.88
2023-01-05T19:56:46.232Z,100759.44
2023-01-05T19:59:34.876Z,100755.72
2023-01-05T20:02:23.463Z,100756.56
2023-01-05T20:05:14.061Z,100761.09
2023-01-05T20:08:02.839Z,100770.53
2023-01-05T20:10:51.366Z,100757.38
2023-01-05T20:13:42.012Z,100768.91
2023-01-05T20:16:30.654Z,100776.34
2023-01-05T20:19:19.916Z,100774.72
2023-01-05T20:22:13.559Z,100785.78
2023-01-05T20:25:02.302Z,100793.63
2023-01-05T20:27:51.073Z,100797.31
2023-01-05T20:30:41.018Z,100793.63
2023-01-05T20:33:30.082Z,100796.94
2023-01-05T20:36:18.772Z,100803.91
2023-01-05T20:39:08.869Z,100803.09
2023-01-05T20:42:04.549Z,100803.75
2023-01-05T20:44:53.313Z,100806.03
2023-01-05T20:47:47.702Z,100815.88
2023-01-05T20:50:36.742Z,100816.25
2023-01-05T20:53:25.349Z,100819.56
2023-01-05T20:56:16.051Z,100815.00
2023-01-05T20:59:04.986Z,100820.34
2023-01-05T21:01:53.682Z,100812.97
2023-01-05T21:04:43.659Z,100825.56
2023-01-05T21:07:32.274Z,100818.53
2023-01-05T21:10:20.965Z,100833.19
2023-01-05T21:13:30.750Z,100838.94
2023-01-05T21:16:20.485Z,100838.09
2023-01-05T21:19:09.652Z,100844.31
2023-01-05T21:21:59.987Z,100846.78
2023-01-05T21:24:48.663Z,100855.84
2023-01-05T21:27:37.498Z,100851.41
2023-01-05T21:30:26.044Z,100855.00
2023-01-05T21:33:15.405Z,100857.28
2023-01-05T21:36:04.233Z,100864.88
2023-01-05T21:39:01.187Z,100864.88
2023-01-05T21:42:09.946Z,100866.53
2023-01-05T21:44:58.661Z,100869.41
2023-01-05T21:47:52.958Z,100870.06
2023-01-05T21:50:59.250Z,100864.03
2023-01-05T21:54:07.970Z,100866.50
2023-01-05T21:56:59.091Z,100860.28
2023-01-05T21:59:47.717Z,100855.09
2023-01-05T22:02:36.450Z,100861.94
2023-01-05T22:05:25.018Z,100858.25
2023-01-05T22:08:13.704Z,100863.16
2023-01-05T22:11:02.881Z,100867.34
2023-01-05T22:13:52.915Z,100866.06
2023-01-05T22:16:41.803Z,100862.81
2023-01-05T22:19:30.433Z,100858.28
2023-01-05T22:22:19.121Z,100865.97
2023-01-05T22:25:08.541Z,100861.44
2023-01-05T22:27:57.630Z,100854.03
2023-01-05T22:30:47.610Z,100857.34
2023-01-05T22:33:38.084Z,100858.16
2023-01-05T22:36:27.968Z,100856.38
2023-01-05T22:39:16.824Z,100859.06
2023-01-05T22:42:05.586Z,100864.22
2023-01-05T22:44:54.151Z,100861.56
2023-01-05T22:47:44.194Z,100866.06
2023-01-05T22:50:33.485Z,100871.03
2023-01-05T22:53:22.374Z,100870.38
2023-01-05T22:56:12.700Z,100871.88
2023-01-05T22:59:01.832Z,100878.44
2023-01-05T23:01:50.779Z,100885.03
2023-01-05T23:04:40.766Z,100878.34
2023-01-05T23:07:29.409Z,100886.75
2023-01-05T23:10:18.247Z,100889.00
2023-01-05T23:13:07.064Z,100879.16
2023-01-05T23:15:56.321Z,100891.38
2023-01-05T23:18:45.254Z,100905.09
2023-01-05T23:21:35.706Z,100902.19
2023-01-05T23:24:24.890Z,100894.38
2023-01-05T23:27:13.527Z,100891.88
2023-01-05T23:30:02.152Z,100893.91
2023-01-05T23:32:50.770Z,100893.25
2023-01-05T23:35:40.052Z,100890.97
2023-01-05T23:38:30.358Z,100887.50
2023-01-05T23:41:19.448Z,100896.09
2023-01-05T23:44:08.738Z,100911.25
2023-01-05T23:46:57.336Z,100892.28
2023-01-05T23:49:46.079Z,100900.66
2023-01-05T23:52:35.029Z,100898.38
2023-01-05T23:55:25.067Z,100895.72
2023-01-05T23:58:13.826Z,100897.13
